KFMH

UTC

Cape Cod Coast Guard Air Station

Sandwich, Massachusetts, United States

TAF Report

KFMH 042320Z 0500/0524 01013G23KT 2SM -RA BR OVC008 FM050600 01015G25KT 3SM -RA BR OVC008 FM051200 36014G25KT P6SM -RA OVC008 FM051500 35014G25KT 6SM -RA BR OVC010 FM052000 36013G22KT P6SM VCSH OVC020

Issued

Jun 04 23:20 UTC

Valid From

Jun 05 00:00 UTC

Valid To

Jun 06 00:00 UTC

TAF Sections

  1. Jun 05 00:00 UTC - Jun 05 06:00 UTC

    TAF KFMH 042320Z 0500/0524 01013G23KT 2SM -RA BR OVC008

    Wind

    010° at 13 KTS
    Gusting to 23 KTS

    Visibility

    2 SM

    Conditions

    • Light Rain
    • Mist

    Clouds

    • Overcast at 800 ft AGL

    Ceiling

    Overcast at 800 ft AGL

  2. Jun 05 06:00 UTC - Jun 05 12:00 UTC

    FM050600 01015G25KT 3SM -RA BR OVC008

    Wind

    010° at 15 KTS
    Gusting to 25 KTS

    Visibility

    3 SM

    Conditions

    • Light Rain
    • Mist

    Clouds

    • Overcast at 800 ft AGL

    Ceiling

    Overcast at 800 ft AGL

  3. Jun 05 12:00 UTC - Jun 05 15:00 UTC

    FM051200 36014G25KT P6SM -RA OVC008

    Wind

    360° at 14 KTS
    Gusting to 25 KTS

    Visibility

    Greater than 6 SM

    Conditions

    • Light Rain

    Clouds

    • Overcast at 800 ft AGL

    Ceiling

    Overcast at 800 ft AGL

  4. Jun 05 15:00 UTC - Jun 05 20:00 UTC

    FM051500 35014G25KT 6SM -RA BR OVC010

    Wind

    350° at 14 KTS
    Gusting to 25 KTS

    Visibility

    6 SM

    Conditions

    • Light Rain
    • Mist

    Clouds

    • Overcast at 1,000 ft AGL

    Ceiling

    Overcast at 1,000 ft AGL

  5. Jun 05 20:00 UTC - Jun 06 00:00 UTC

    FM052000 36013G22KT P6SM VCSH OVC020

    Wind

    360° at 13 KTS
    Gusting to 22 KTS

    Visibility

    Greater than 6 SM

    Conditions

    • Area Showers

    Clouds

    • Overcast at 2,000 ft AGL

    Ceiling

    Overcast at 2,000 ft AGL